Time;durP1;ratioP1;P1;durP2;ratioP2;P2;SDS_P1;SDS_P2;PMS_P1;PMS_P2;Temp;Humidity;BMP_temperature;BMP_pressure;BME280_temperature;BME280_humidity;BME280_pressure;Samples;Min_cycle;Max_cycle;Signal;HPM_P1;HPM_P2
2023/09/26 00:00:08;;;;;;;14.10;8.80;;;;;;;17.52;100.00;100887.23;107068;1251;61339;-75
2023/09/26 00:02:38;;;;;;;15.70;8.50;;;;;;;17.50;100.00;100893.50;106532;1253;74455;-73
2023/09/26 00:05:07;;;;;;;13.90;9.00;;;;;;;17.50;100.00;100892.65;106217;1250;69041;-75
2023/09/26 00:07:36;;;;;;;13.60;8.60;;;;;;;17.48;100.00;100894.30;106923;1250;71661;-74
2023/09/26 00:10:04;;;;;;;13.40;8.10;;;;;;;17.46;100.00;100887.27;106665;1250;61985;-74
2023/09/26 00:12:31;;;;;;;14.60;8.70;;;;;;;17.43;100.00;100883.32;106189;1251;61256;-75
2023/09/26 00:14:58;;;;;;;14.40;8.80;;;;;;;17.41;100.00;100881.09;106256;1250;74379;-75
2023/09/26 00:17:25;;;;;;;11.90;8.40;;;;;;;17.39;100.00;100881.90;106151;1256;71173;-75
2023/09/26 00:19:52;;;;;;;17.00;8.80;;;;;;;17.36;100.00;100878.65;107190;1254;72497;-75
2023/09/26 00:22:19;;;;;;;17.50;8.90;;;;;;;17.33;100.00;100881.07;106174;1250;61375;-75
2023/09/26 00:24:46;;;;;;;12.10;8.40;;;;;;;17.30;100.00;100885.28;106236;1254;60135;-75
2023/09/26 00:27:13;;;;;;;15.80;8.50;;;;;;;17.27;100.00;100881.50;106186;1250;74514;-75
2023/09/26 00:29:40;;;;;;;15.50;8.40;;;;;;;17.24;100.00;100887.65;106493;1255;70983;-74
2023/09/26 00:32:09;;;;;;;14.70;8.50;;;;;;;17.21;100.00;100888.65;106326;1250;72967;-75
2023/09/26 00:34:35;;;;;;;9.90;7.70;;;;;;;17.18;100.00;100888.05;106155;1254;61682;-75
2023/09/26 00:37:03;;;;;;;9.60;8.60;;;;;;;17.15;100.00;100887.66;106172;1250;61271;-75
2023/09/26 00:39:30;;;;;;;11.00;8.60;;;;;;;17.09;100.00;100884.14;106241;1250;73435;-75
2023/09/26 00:41:57;;;;;;;12.80;7.80;;;;;;;17.06;100.00;100881.62;106169;1250;69864;-76
2023/09/26 00:44:23;;;;;;;10.60;7.70;;;;;;;17.03;100.00;100880.48;107169;1250;71422;-74
2023/09/26 00:46:50;;;;;;;12.50;8.50;;;;;;;17.01;100.00;100887.15;106212;1251;61345;-76
2023/09/26 00:49:17;;;;;;;11.30;7.70;;;;;;;16.98;100.00;100888.12;106073;1256;61398;-74
2023/09/26 00:51:44;;;;;;;10.60;7.90;;;;;;;16.97;100.00;100891.02;106213;1254;74480;-75
2023/09/26 00:54:11;;;;;;;13.60;8.30;;;;;;;16.95;100.00;100891.81;106168;1256;70922;-75
2023/09/26 00:56:39;;;;;;;15.10;8.30;;;;;;;16.94;100.00;100890.80;105998;1257;72772;-74
2023/09/26 00:59:07;;;;;;;14.10;8.80;;;;;;;16.92;100.00;100892.27;106155;1250;61876;-75
2023/09/26 01:01:34;;;;;;;11.20;8.20;;;;;;;16.90;100.00;100891.64;106453;1250;61288;-75
2023/09/26 01:04:02;;;;;;;12.40;8.10;;;;;;;16.87;100.00;100894.58;106070;1250;73203;-75
2023/09/26 01:06:30;;;;;;;16.80;9.20;;;;;;;16.85;100.00;100899.81;106106;1256;71210;-75
2023/09/26 01:08:57;;;;;;;11.00;8.40;;;;;;;16.83;100.00;100897.73;106152;1250;72412;-76
2023/09/26 01:11:24;;;;;;;8.30;7.40;;;;;;;16.81;100.00;100899.75;106337;1250;61626;-75
2023/09/26 01:13:50;;;;;;;14.50;9.20;;;;;;;16.79;100.00;100898.05;107118;1250;61153;-75
2023/09/26 01:16:18;;;;;;;15.90;9.10;;;;;;;16.77;100.00;100899.39;106352;1250;74415;-75
2023/09/26 01:18:45;;;;;;;11.40;8.90;;;;;;;16.73;100.00;100896.52;107036;1250;71030;-76
2023/09/26 01:21:12;;;;;;;14.80;9.30;;;;;;;16.70;100.00;100892.73;106568;1250;72461;-75
2023/09/26 01:23:40;;;;;;;13.20;9.10;;;;;;;16.69;100.00;100891.36;106668;1250;61990;-75
2023/09/26 01:26:07;;;;;;;14.70;9.10;;;;;;;16.66;100.00;100887.73;106277;1254;61145;-76
2023/09/26 01:28:34;;;;;;;16.90;9.30;;;;;;;16.65;100.00;100884.95;106181;1256;74726;-75
2023/09/26 01:31:01;;;;;;;17.00;8.40;;;;;;;16.64;100.00;100884.81;106283;1250;70787;-76
2023/09/26 01:33:28;;;;;;;14.00;8.60;;;;;;;16.62;100.00;100884.85;106171;1250;71340;-76
2023/09/26 01:35:55;;;;;;;11.80;9.20;;;;;;;16.60;100.00;100881.06;106177;1251;61684;-75
2023/09/26 01:38:25;;;;;;;14.20;9.70;;;;;;;16.57;100.00;100881.18;106845;1250;61353;-75
2023/09/26 01:40:52;;;;;;;14.10;9.00;;;;;;;16.54;100.00;100881.82;106212;1254;75075;-76
2023/09/26 01:43:18;;;;;;;10.60;9.00;;;;;;;16.52;100.00;100885.80;106160;1253;69635;-75
2023/09/26 01:45:46;;;;;;;11.60;8.80;;;;;;;16.49;100.00;100888.89;106277;1251;71998;-75
2023/09/26 01:48:13;;;;;;;14.10;10.00;;;;;;;16.47;100.00;100894.31;106270;1250;61966;-76
2023/09/26 01:50:40;;;;;;;16.70;10.50;;;;;;;16.45;100.00;100896.87;107322;1250;61683;-75
2023/09/26 01:53:09;;;;;;;16.60;10.00;;;;;;;16.43;100.00;100900.11;106654;1256;74997;-75
2023/09/26 01:55:38;;;;;;;15.50;11.60;;;;;;;16.42;100.00;100904.58;106019;1256;70881;-75
2023/09/26 01:58:05;;;;;;;18.50;11.50;;;;;;;16.41;100.00;100901.23;106261;1250;72488;-75
2023/09/26 02:00:32;;;;;;;19.60;13.00;;;;;;;16.42;100.00;100904.05;106035;1251;62369;-75
2023/09/26 02:02:58;;;;;;;22.60;13.40;;;;;;;16.42;100.00;100907.92;106188;1255;62032;-75
2023/09/26 02:05:25;;;;;;;19.20;12.10;;;;;;;16.42;100.00;100912.55;106458;1255;74362;-75
2023/09/26 02:07:52;;;;;;;23.80;14.00;;;;;;;16.43;100.00;100918.90;106004;1250;70771;-75
2023/09/26 02:10:19;;;;;;;21.70;12.60;;;;;;;16.43;100.00;100924.55;106337;1252;72983;-76
2023/09/26 02:12:48;;;;;;;27.60;13.80;;;;;;;16.44;100.00;100926.30;106139;1254;61506;-75
2023/09/26 02:15:15;;;;;;;21.60;14.00;;;;;;;16.45;100.00;100929.10;106157;1256;61321;-75
2023/09/26 02:17:43;;;;;;;19.40;13.20;;;;;;;16.45;100.00;100931.73;106153;1250;74487;-74
2023/09/26 02:20:16;;;;;;;25.10;14.80;;;;;;;16.45;100.00;100932.61;106949;1250;70804;-75
2023/09/26 02:22:48;;;;;;;22.30;14.90;;;;;;;16.47;100.00;100931.69;106148;1250;72381;-75
2023/09/26 02:25:16;;;;;;;20.50;14.00;;;;;;;16.48;100.00;100934.13;106203;1255;61775;-75
2023/09/26 02:27:43;;;;;;;23.30;15.50;;;;;;;16.48;100.00;100933.08;106319;1250;61305;-76
2023/09/26 02:30:10;;;;;;;21.40;14.70;;;;;;;16.47;100.00;100933.59;106841;1256;73529;-76
2023/09/26 02:32:38;;;;;;;24.80;15.60;;;;;;;16.48;100.00;100936.40;106216;1250;71024;-75
2023/09/26 02:35:10;;;;;;;19.90;14.00;;;;;;;16.49;100.00;100935.47;107990;1250;72511;-75
2023/09/26 02:37:38;;;;;;;23.10;14.90;;;;;;;16.50;100.00;100937.77;106588;1252;60572;-76
2023/09/26 02:40:11;;;;;;;24.00;14.80;;;;;;;16.51;100.00;100940.02;106305;1251;61260;-77
2023/09/26 02:42:39;;;;;;;21.40;14.50;;;;;;;16.52;100.00;100941.04;106205;1250;73079;-76
2023/09/26 02:45:06;;;;;;;19.50;14.30;;;;;;;16.52;100.00;100942.81;106575;1255;69828;-75
2023/09/26 02:47:34;;;;;;;24.60;14.10;;;;;;;16.53;100.00;100945.45;106197;1255;1003837;-75
2023/09/26 02:50:01;;;;;;;17.70;13.30;;;;;;;16.53;100.00;100945.11;106449;1256;61637;-75
2023/09/26 02:52:29;;;;;;;19.70;12.80;;;;;;;16.53;100.00;100945.42;106225;1256;61215;-76
2023/09/26 02:54:56;;;;;;;20.50;12.60;;;;;;;16.55;100.00;100942.55;106443;1255;74451;-76
2023/09/26 02:57:24;;;;;;;22.00;12.10;;;;;;;16.55;100.00;100941.48;107292;1250;69998;-78
2023/09/26 02:59:51;;;;;;;18.40;12.60;;;;;;;16.56;100.00;100945.35;106518;1250;72457;-76
2023/09/26 03:02:17;;;;;;;19.40;13.10;;;;;;;16.57;100.00;100952.02;106522;1251;61973;-77
2023/09/26 03:04:50;;;;;;;23.30;12.50;;;;;;;16.57;100.00;100955.39;106960;1254;61385;-76
2023/09/26 03:07:17;;;;;;;18.00;12.20;;;;;;;16.58;100.00;100955.00;106419;1250;73716;-75
2023/09/26 03:09:45;;;;;;;19.00;12.50;;;;;;;16.59;100.00;100959.38;105953;1250;501081;-75
2023/09/26 03:12:12;;;;;;;18.40;12.40;;;;;;;16.59;100.00;100962.40;106502;1256;72415;-76
2023/09/26 03:14:39;;;;;;;17.80;13.10;;;;;;;16.59;100.00;100965.23;106902;1250;61635;-75
2023/09/26 03:17:06;;;;;;;17.30;13.20;;;;;;;16.58;100.00;100966.50;106119;1256;61280;-76
2023/09/26 03:19:32;;;;;;;20.60;13.60;;;;;;;16.58;100.00;100964.91;106142;1250;73261;-77
2023/09/26 03:21:59;;;;;;;25.70;14.30;;;;;;;16.57;100.00;100965.16;106049;1256;70862;-76
2023/09/26 03:24:26;;;;;;;25.10;15.30;;;;;;;16.57;100.00;100969.55;106029;1256;72444;-75
2023/09/26 03:26:52;;;;;;;22.80;16.00;;;;;;;16.57;100.00;100970.63;106118;1250;61965;-75
2023/09/26 03:29:19;;;;;;;27.50;17.00;;;;;;;16.57;100.00;100968.50;107308;1251;61314;-75
2023/09/26 03:31:48;;;;;;;25.00;17.30;;;;;;;16.57;100.00;100965.32;106559;1250;74975;-74
2023/09/26 03:34:15;;;;;;;27.30;18.60;;;;;;;16.57;100.00;100967.63;106581;1250;71001;-75
2023/09/26 03:36:42;;;;;;;23.40;17.50;;;;;;;16.56;100.00;100966.40;106009;1256;72480;-74
2023/09/26 03:39:09;;;;;;;26.80;18.20;;;;;;;16.56;100.00;100966.95;106504;1251;62031;-75
2023/09/26 03:41:52;;;;;;;27.20;17.90;;;;;;;16.57;100.00;100968.31;103058;1288;601493;-75
2023/09/26 03:44:19;;;;;;;31.80;18.20;;;;;;;16.56;100.00;100972.27;106098;1270;59419;-75
2023/09/26 03:46:47;;;;;;;27.10;18.40;;;;;;;16.56;100.00;100971.55;105571;1264;60040;-76
2023/09/26 03:49:14;;;;;;;22.60;16.90;;;;;;;16.55;100.00;100970.16;105873;1268;72241;-75
2023/09/26 03:51:42;;;;;;;29.00;18.20;;;;;;;16.55;100.00;100971.05;105162;1266;71151;-74
2023/09/26 03:54:10;;;;;;;26.90;17.40;;;;;;;16.54;100.00;100976.57;105546;1262;72638;-75
2023/09/26 04:04:23;;;;;;;32.30;18.30;;;;;;;16.55;100.00;100976.70;102813;1293;600975;-75
2023/09/26 04:14:37;;;;;;;22.60;16.20;;;;;;;16.59;100.00;100977.81;102582;1296;600318;-76
2023/09/26 04:17:05;;;;;;;24.20;15.70;;;;;;;16.59;100.00;100982.58;105090;1266;59325;-75
2023/09/26 04:19:32;;;;;;;23.60;16.80;;;;;;;16.59;100.00;100978.68;105909;1266;59389;-75
2023/09/26 04:22:00;;;;;;;22.50;15.70;;;;;;;16.60;100.00;100975.67;105611;1270;70000;-76
2023/09/26 04:24:28;;;;;;;23.10;16.50;;;;;;;16.61;100.00;100974.92;105075;1266;71147;-78
2023/09/26 04:26:55;;;;;;;23.80;17.40;;;;;;;16.61;100.00;100978.64;105174;1266;72710;-74
2023/09/26 04:29:23;;;;;;;22.50;17.10;;;;;;;16.60;100.00;100979.00;105411;1262;225542;-75
2023/09/26 04:31:50;;;;;;;22.10;16.90;;;;;;;16.60;100.00;100976.91;105349;1263;59785;-77
2023/09/26 04:34:18;;;;;;;26.50;16.70;;;;;;;16.60;100.00;100983.80;107062;1262;72222;-76
2023/09/26 04:36:46;;;;;;;29.40;17.60;;;;;;;16.60;100.00;100986.63;105545;1263;71846;-76
2023/09/26 04:39:13;;;;;;;25.20;17.30;;;;;;;16.61;100.00;100982.52;105951;1268;73122;-76
2023/09/26 04:41:41;;;;;;;26.80;17.10;;;;;;;16.62;100.00;100982.67;105273;1266;61693;-75
2023/09/26 04:44:08;;;;;;;31.10;18.00;;;;;;;16.62;100.00;100985.31;105619;1268;59543;-75
2023/09/26 04:46:36;;;;;;;25.40;16.50;;;;;;;16.63;100.00;100983.35;105214;1263;71756;-75
2023/09/26 04:49:04;;;;;;;25.00;17.50;;;;;;;16.65;100.00;100988.23;105320;1267;69769;-75
2023/09/26 04:51:32;;;;;;;20.90;16.30;;;;;;;16.66;100.00;100987.48;105338;1268;72506;-75
2023/09/26 04:54:01;;;;;;;26.20;17.00;;;;;;;16.68;100.00;100987.95;106152;1263;59568;-75
2023/09/26 04:56:29;;;;;;;27.90;16.50;;;;;;;16.68;100.00;100992.20;105197;1263;59739;-76
2023/09/26 05:06:35;;;;;;;26.10;16.40;;;;;;;16.73;100.00;100981.20;103394;1289;601094;-76
2023/09/26 05:09:02;;;;;;;25.70;16.70;;;;;;;16.74;100.00;101001.55;105767;1266;60526;-76
2023/09/26 05:11:30;;;;;;;21.10;15.70;;;;;;;16.75;100.00;101001.70;105354;1261;59375;-75
2023/09/26 05:13:59;;;;;;;24.50;15.60;;;;;;;16.76;100.00;101003.95;105370;1267;72028;-77
2023/09/26 05:16:26;;;;;;;24.70;16.00;;;;;;;16.77;100.00;101006.39;105363;1261;71073;-76
2023/09/26 05:18:54;;;;;;;25.60;16.20;;;;;;;16.77;100.00;101004.62;105471;1261;71355;-76
2023/09/26 05:21:21;;;;;;;27.30;16.10;;;;;;;16.80;100.00;101004.72;107042;1261;385265;-74
2023/09/26 05:31:30;;;;;;;34.40;16.00;;;;;;;16.92;100.00;101007.27;103538;1289;601071;-75
2023/09/26 05:33:58;;;;;;;25.10;14.90;;;;;;;16.94;100.00;101008.48;106053;1264;59369;-75
2023/09/26 05:36:26;;;;;;;23.30;13.90;;;;;;;16.98;100.00;101007.26;106033;1264;60026;-74
2023/09/26 05:38:54;;;;;;;20.10;13.00;;;;;;;17.02;100.00;101007.09;105587;1270;72645;-75
2023/09/26 05:41:21;;;;;;;24.00;13.30;;;;;;;17.10;100.00;101007.90;105220;1264;70784;-75
2023/09/26 05:43:49;;;;;;;19.50;12.90;;;;;;;17.18;100.00;101016.10;105215;1267;70957;-75
2023/09/26 05:46:17;;;;;;;18.00;12.10;;;;;;;17.23;100.00;101011.99;106177;1257;265581;-74
2023/09/26 05:48:45;;;;;;;18.30;14.10;;;;;;;17.27;100.00;101011.11;106978;1251;59987;-75
2023/09/26 05:51:12;;;;;;;23.10;13.70;;;;;;;17.29;100.00;101010.15;106494;1251;70943;-75
2023/09/26 05:53:40;;;;;;;18.90;13.10;;;;;;;17.30;100.00;101010.48;106520;1255;69929;-75
2023/09/26 05:56:07;;;;;;;16.60;13.10;;;;;;;17.32;100.00;101012.55;106082;1254;72773;-76
2023/09/26 05:58:37;;;;;;;27.10;13.50;;;;;;;17.35;100.00;101005.30;106136;1251;61610;-76
2023/09/26 06:01:08;;;;;;;17.10;13.10;;;;;;;17.40;100.00;101005.81;106160;1253;59992;-77
2023/09/26 06:11:16;;;;;;;21.40;14.40;;;;;;;17.60;100.00;101006.63;102857;1293;601021;-74
2023/09/26 06:13:44;;;;;;;20.70;13.20;;;;;;;17.63;100.00;101009.36;105592;1263;60043;-77
2023/09/26 06:16:12;;;;;;;21.90;13.90;;;;;;;17.69;100.00;101011.25;105641;1263;59353;-75
2023/09/26 06:18:39;;;;;;;20.90;13.90;;;;;;;17.77;100.00;101016.44;105936;1261;70995;-74
2023/09/26 06:21:07;;;;;;;21.10;14.50;;;;;;;17.85;100.00;101015.23;106097;1260;71139;-74
2023/09/26 06:23:35;;;;;;;24.90;13.90;;;;;;;17.93;100.00;101013.33;106098;1257;72666;-75
2023/09/26 06:26:03;;;;;;;20.50;14.10;;;;;;;18.01;100.00;101016.91;106056;1255;479924;-75
2023/09/26 06:28:31;;;;;;;17.60;14.50;;;;;;;18.07;100.00;101010.43;106784;1254;59985;-75
2023/09/26 06:31:08;;;;;;;20.20;13.60;;;;;;;18.14;100.00;101007.29;106176;1259;72236;-76
2023/09/26 06:33:36;;;;;;;21.50;15.50;;;;;;;18.24;100.00;101006.55;105972;1259;69238;-76
2023/09/26 06:36:14;;;;;;;21.20;16.40;;;;;;;18.29;100.00;101002.59;106501;1254;72637;-74
2023/09/26 06:38:41;;;;;;;20.10;15.80;;;;;;;18.34;100.00;101005.55;106587;1256;59724;-76
2023/09/26 06:41:09;;;;;;;22.30;14.30;;;;;;;18.40;100.00;101006.56;106262;1254;59750;-77
2023/09/26 06:43:36;;;;;;;23.80;14.70;;;;;;;18.51;100.00;101010.68;106253;1254;73066;-74
2023/09/26 06:53:54;;;;;;;31.00;15.00;;;;;;;18.86;100.00;100996.02;103557;1291;600242;-76
2023/09/26 06:56:22;;;;;;;22.80;15.10;;;;;;;18.93;100.00;101002.99;105658;1267;61832;-75
2023/09/26 06:58:50;;;;;;;21.50;14.50;;;;;;;19.02;100.00;101006.16;105170;1265;60081;-76
2023/09/26 07:01:18;;;;;;;16.20;11.60;;;;;;;19.07;100.00;101007.13;105149;1269;72651;-75
2023/09/26 07:03:46;;;;;;;16.40;11.40;;;;;;;19.13;100.00;101009.19;105962;1265;71481;-76
2023/09/26 07:06:14;;;;;;;17.90;10.50;;;;;;;19.19;100.00;101001.09;106718;1262;71382;-76
2023/09/26 07:08:43;;;;;;;14.30;10.30;;;;;;;19.27;100.00;100998.03;105497;1256;221286;-78
2023/09/26 07:11:10;;;;;;;17.50;10.70;;;;;;;19.38;100.00;100991.29;105733;1261;60001;-76
2023/09/26 07:13:39;;;;;;;17.70;10.80;;;;;;;19.50;100.00;100990.90;105609;1259;72256;-75
2023/09/26 07:16:09;;;;;;;11.90;9.30;;;;;;;19.61;100.00;100989.44;106012;1259;69946;-74
2023/09/26 07:18:37;;;;;;;15.50;9.50;;;;;;;19.73;100.00;100985.52;105630;1256;73114;-75
2023/09/26 07:21:06;;;;;;;14.00;9.00;;;;;;;19.83;100.00;100985.41;105649;1257;60056;-75
2023/09/26 07:23:34;;;;;;;12.80;9.30;;;;;;;19.94;100.00;100984.34;105998;1256;59672;-75
2023/09/26 07:26:12;;;;;;;15.50;8.90;;;;;;;20.04;100.00;100981.30;105682;1257;71815;-76
2023/09/26 07:28:46;;;;;;;13.70;8.40;;;;;;;20.17;100.00;100978.17;106066;1260;69964;-75
2023/09/26 07:31:15;;;;;;;14.00;9.60;;;;;;;20.30;100.00;100976.08;105736;1258;72668;-76
2023/09/26 07:33:44;;;;;;;15.50;9.00;;;;;;;20.41;100.00;100969.80;107470;1256;60073;-76
2023/09/26 07:36:12;;;;;;;18.00;9.30;;;;;;;20.51;100.00;100964.83;106417;1256;60447;-76
2023/09/26 07:38:40;;;;;;;13.30;8.20;;;;;;;20.60;100.00;100963.98;106449;1256;73067;-76
2023/09/26 07:41:08;;;;;;;13.80;9.00;;;;;;;20.70;100.00;100961.19;106743;1256;70658;-77
2023/09/26 07:43:36;;;;;;;17.40;9.70;;;;;;;20.78;100.00;100959.84;106312;1257;71780;-77
2023/09/26 07:46:07;;;;;;;12.60;8.90;;;;;;;20.85;100.00;100955.94;106272;1259;59752;-77
2023/09/26 07:48:36;;;;;;;13.20;8.30;;;;;;;20.93;100.00;100955.31;106188;1253;59743;-75
2023/09/26 07:51:05;;;;;;;13.90;8.20;;;;;;;21.03;100.00;100953.16;107276;1253;73530;-75
2023/09/26 07:53:33;;;;;;;12.90;9.40;;;;;;;21.16;100.00;100953.11;106705;1256;71061;-77
2023/09/26 07:56:00;;;;;;;19.00;8.80;;;;;;;21.28;100.00;100949.43;107012;1252;71153;-75
2023/09/26 07:58:28;;;;;;;15.00;8.60;;;;;;;21.37;100.00;100939.46;106650;1252;61705;-76
2023/09/26 08:00:58;;;;;;;14.30;8.70;;;;;;;21.43;100.00;100936.64;106478;1256;59557;-76
2023/09/26 08:03:26;;;;;;;15.60;8.60;;;;;;;21.45;100.00;100939.02;106292;1253;72847;-75
2023/09/26 08:06:01;;;;;;;11.20;7.60;;;;;;;21.51;100.00;100937.25;106410;1258;69743;-76
2023/09/26 08:08:29;;;;;;;17.90;8.70;;;;;;;21.60;100.00;100929.62;106937;1253;71399;-76
2023/09/26 08:11:05;;;;;;;17.90;7.80;;;;;;;21.70;100.00;100921.33;106489;1251;60105;-76
2023/09/26 08:13:34;;;;;;;20.90;8.80;;;;;;;21.82;100.00;100921.15;106825;1252;62661;-75
2023/09/26 08:16:02;;;;;;;15.20;8.70;;;;;;;21.94;100.00;100919.96;106694;1257;73301;-77
2023/09/26 08:18:32;;;;;;;13.80;8.80;;;;;;;21.99;100.00;100914.95;107234;1252;71340;-77
2023/09/26 08:28:49;;;;;;;17.60;9.30;;;;;;;22.20;100.00;100894.06;103581;1292;601131;-76
2023/09/26 08:38:55;;;;;;;14.80;8.70;;;;;;;22.24;100.00;100895.23;103942;1292;600075;-74
2023/09/26 08:41:24;;;;;;;16.30;7.50;;;;;;;22.35;100.00;100894.23;106107;1266;59376;-76
2023/09/26 08:51:30;;;;;;;12.20;7.10;;;;;;;22.92;100.00;100885.31;102895;1289;601641;-74
2023/09/26 08:53:57;;;;;;;16.70;7.70;;;;;;;23.04;100.00;100884.31;105102;1266;60546;-76
2023/09/26 08:56:25;;;;;;;13.50;6.90;;;;;;;23.16;100.00;100882.52;105155;1264;60416;-76
2023/09/26 08:58:54;;;;;;;11.50;6.70;;;;;;;23.27;100.00;100877.30;105263;1270;74466;-76
2023/09/26 09:01:22;;;;;;;12.60;6.40;;;;;;;23.37;100.00;100868.40;106009;1264;69572;-76
2023/09/26 09:03:50;;;;;;;14.70;6.90;;;;;;;23.46;100.00;100872.48;105467;1271;72697;-74
2023/09/26 09:06:17;;;;;;;8.10;6.90;;;;;;;23.57;100.00;100868.14;105846;1261;228236;-74
2023/09/26 09:08:45;;;;;;;16.90;6.80;;;;;;;23.67;100.00;100869.98;106282;1262;60458;-75
2023/09/26 09:11:12;;;;;;;12.30;7.20;;;;;;;23.70;100.00;100865.65;105187;1270;63255;-75
2023/09/26 09:13:42;;;;;;;10.30;6.30;;;;;;;23.79;100.00;100868.67;105355;1268;69523;-75
2023/09/26 09:16:11;;;;;;;8.80;5.90;;;;;;;23.87;100.00;100864.90;105340;1263;72782;-78
2023/09/26 09:18:44;;;;;;;13.70;6.60;;;;;;;23.98;100.00;100865.38;105669;1268;59683;-76
2023/09/26 09:21:31;;;;;;;13.90;7.10;;;;;;;24.10;100.00;100863.10;106100;1261;60281;-76
2023/09/26 09:24:04;;;;;;;11.40;7.20;;;;;;;24.21;100.00;100862.02;106203;1263;71810;-75
2023/09/26 09:26:34;;;;;;;15.70;6.50;;;;;;;24.25;100.00;100862.77;105659;1263;69497;-75
2023/09/26 09:29:19;;;;;;;13.80;6.40;;;;;;;24.25;100.00;100860.10;105345;1263;71450;-75
2023/09/26 09:31:46;;;;;;;13.50;6.20;;;;;;;24.26;100.00;100861.08;106020;1267;59696;-77
2023/09/26 09:41:58;;;;;;;9.50;6.30;;;;;;;24.66;100.00;100858.27;103363;1295;600377;-76
2023/09/26 09:44:26;;;;;;;7.50;5.50;;;;;;;24.71;100.00;100862.41;105671;1264;60088;-76
2023/09/26 09:46:56;;;;;;;10.30;5.70;;;;;;;24.81;100.00;100856.85;105913;1270;60163;-76
2023/09/26 09:49:24;;;;;;;8.30;5.80;;;;;;;24.89;100.00;100858.60;106506;1264;73008;-74
2023/09/26 09:51:52;;;;;;;14.70;5.70;;;;;;;24.98;100.00;100857.45;105941;1257;70772;-74
2023/09/26 09:54:20;;;;;;;10.90;5.30;;;;;;;25.05;100.00;100857.78;106241;1257;75232;-74
2023/09/26 09:56:48;;;;;;;10.20;5.20;;;;;;;25.17;100.00;100855.23;106068;1254;247413;-74
2023/09/26 09:59:16;;;;;;;12.40;4.90;;;;;;;25.30;100.00;100852.72;106773;1253;60068;-75
2023/09/26 10:01:46;;;;;;;14.00;6.20;;;;;;;25.45;100.00;100852.81;106991;1251;71773;-77
2023/09/26 10:04:15;;;;;;;11.10;5.30;;;;;;;25.56;100.00;100846.41;106985;1251;71502;-76
2023/09/26 10:14:30;;;;;;;19.70;4.90;;;;;;;25.79;100.00;100830.63;103563;1291;600272;-76
2023/09/26 10:16:59;;;;;;;11.90;6.30;;;;;;;25.82;100.00;100832.56;106149;1266;59369;-75
2023/09/26 10:19:28;;;;;;;15.10;5.70;;;;;;;25.89;100.00;100832.79;105494;1271;60495;-76
2023/09/26 10:22:17;;;;;;;8.80;5.50;;;;;;;25.95;100.00;100834.67;105776;1270;74536;-76
2023/09/26 10:24:49;;;;;;;13.30;5.20;;;;;;;25.99;100.00;100835.61;105510;1265;71570;-77
2023/09/26 10:27:47;;;;;;;9.60;4.70;;;;;;;26.03;100.00;100834.07;106083;1266;235154;-75
2023/09/26 10:30:26;;;;;;;7.30;4.80;;;;;;;26.13;100.00;100830.71;106115;1267;59241;-74
2023/09/26 10:32:54;;;;;;;17.10;5.60;;;;;;;26.21;100.00;100831.58;105648;1262;60713;-76
2023/09/26 10:35:23;;;;;;;11.20;4.80;;;;;;;26.25;100.00;100829.83;105668;1268;63417;-76
2023/09/26 10:38:06;;;;;;;7.80;4.80;;;;;;;26.31;100.00;100826.97;106385;1262;61034;-76
2023/09/26 10:40:34;;;;;;;8.40;5.20;;;;;;;26.40;100.00;100827.20;106535;1262;74929;-76
2023/09/26 10:43:02;;;;;;;10.40;5.70;;;;;;;26.47;100.00;100828.21;105993;1268;62444;-75
2023/09/26 10:45:33;;;;;;;8.30;5.00;;;;;;;26.56;100.00;100823.69;106632;1262;60511;-77
2023/09/26 10:48:07;;;;;;;15.80;4.90;;;;;;;26.64;100.00;100823.98;106080;1262;75318;-75
2023/09/26 10:50:37;;;;;;;11.90;4.90;;;;;;;26.75;100.00;100820.45;105803;1268;69109;-76
2023/09/26 10:53:05;;;;;;;12.40;5.20;;;;;;;26.81;100.00;100817.02;106558;1264;73249;-77
2023/09/26 10:55:33;;;;;;;13.70;5.80;;;;;;;26.85;100.00;100818.66;105765;1268;59577;-76
2023/09/26 10:58:01;;;;;;;10.10;4.60;;;;;;;26.93;100.00;100819.45;106443;1262;59673;-75
2023/09/26 11:00:29;;;;;;;7.60;5.30;;;;;;;27.03;100.00;100818.82;106099;1263;73280;-75
2023/09/26 11:02:57;;;;;;;8.30;5.00;;;;;;;27.14;100.00;100811.60;105188;1268;70065;-75
2023/09/26 11:05:31;;;;;;;5.70;4.70;;;;;;;27.20;100.00;100810.41;105475;1270;72699;-76
2023/09/26 11:08:00;;;;;;;11.30;5.10;;;;;;;27.24;100.00;100810.59;105509;1268;59938;-79
2023/09/26 11:10:28;;;;;;;11.40;4.80;;;;;;;27.33;100.00;100806.63;106128;1263;59649;-78
2023/09/26 11:12:56;;;;;;;5.70;4.70;;;;;;;27.40;100.00;100807.46;106324;1262;72336;-76
2023/09/26 11:15:25;;;;;;;9.30;4.70;;;;;;;27.40;100.00;100809.40;106043;1263;71163;-76
2023/09/26 11:17:53;;;;;;;7.40;4.90;;;;;;;27.47;100.00;100805.83;106146;1263;72866;-75
2023/09/26 11:20:21;;;;;;;9.90;4.90;;;;;;;27.56;100.00;100805.70;106693;1258;59830;-75
2023/09/26 11:22:50;;;;;;;8.80;4.40;;;;;;;27.66;100.00;100801.95;106182;1262;60270;-75
2023/09/26 11:25:18;;;;;;;8.20;4.50;;;;;;;27.76;100.00;100804.38;106315;1256;71939;-74
2023/09/26 11:27:46;;;;;;;9.60;4.40;;;;;;;27.81;100.00;100803.27;105705;1262;61870;-76
2023/09/26 11:30:17;;;;;;;11.70;4.50;;;;;;;27.89;100.00;100802.70;106444;1261;71193;-76
2023/09/26 11:32:48;;;;;;;9.00;4.20;;;;;;;28.01;100.00;100800.63;106833;1260;61266;-76
2023/09/26 11:35:16;;;;;;;7.30;4.10;;;;;;;28.08;100.00;100802.73;106611;1261;59660;-76
2023/09/26 11:37:52;;;;;;;11.80;4.80;;;;;;;28.15;100.00;100805.86;106806;1257;73642;-74
2023/09/26 11:40:21;;;;;;;7.40;4.00;;;;;;;28.26;100.00;100802.55;106402;1256;63016;-74
2023/09/26 11:42:51;;;;;;;8.60;4.50;;;;;;;28.37;100.00;100798.71;106312;1256;75311;-76
2023/09/26 11:45:26;;;;;;;10.10;4.00;;;;;;;28.48;100.00;100799.70;105960;1257;59770;-76
2023/09/26 11:47:56;;;;;;;9.70;4.20;;;;;;;28.56;100.00;100794.65;106118;1256;59242;-76
2023/09/26 11:50:25;;;;;;;7.40;4.30;;;;;;;28.64;100.00;100791.77;105749;1261;73750;-76
2023/09/26 11:52:56;;;;;;;6.50;3.90;;;;;;;28.69;100.00;100790.02;106304;1256;73984;-76
2023/09/26 11:55:24;;;;;;;11.50;4.30;;;;;;;28.75;100.00;100793.16;106226;1260;64470;-74
2023/09/26 11:57:51;;;;;;;10.60;4.60;;;;;;;28.80;100.00;100788.95;106117;1256;62378;-76
2023/09/26 12:00:20;;;;;;;11.10;4.00;;;;;;;28.82;100.00;100789.64;106267;1258;59495;-75
2023/09/26 12:02:51;;;;;;;6.70;4.10;;;;;;;28.85;100.00;100787.88;106982;1262;64120;-76
2023/09/26 12:05:20;;;;;;;8.60;4.60;;;;;;;28.86;100.00;100786.54;106388;1256;64749;-75
2023/09/26 12:07:49;;;;;;;10.10;4.40;;;;;;;28.92;100.00;100788.90;106823;1256;63873;-75
2023/09/26 12:10:17;;;;;;;9.50;4.40;;;;;;;28.98;100.00;100784.56;106811;1257;59645;-75
2023/09/26 12:12:45;;;;;;;10.20;4.60;;;;;;;29.07;100.00;100783.94;106896;1262;59768;-75
2023/09/26 12:15:20;;;;;;;8.60;4.10;;;;;;;29.13;100.00;100783.36;106543;1257;63944;-76
2023/09/26 12:17:48;;;;;;;8.30;4.50;;;;;;;29.21;100.00;100779.02;107224;1261;63085;-75
2023/09/26 12:20:24;;;;;;;12.70;5.10;;;;;;;29.26;100.00;100778.54;106670;1258;75339;-75
2023/09/26 12:22:53;;;;;;;7.50;4.30;;;;;;;29.27;100.00;100774.49;106822;1257;59769;-76
2023/09/26 12:25:24;;;;;;;8.50;3.90;;;;;;;29.26;100.00;100772.89;106940;1256;59592;-75
2023/09/26 12:27:52;;;;;;;6.90;4.10;;;;;;;29.18;100.00;100771.16;107154;1261;75454;-75
2023/09/26 12:30:20;;;;;;;7.00;4.20;;;;;;;29.10;100.00;100766.30;106241;1256;63071;-75